createdAt,value
2023-05-06T00:00:56.402Z,12.95
2023-05-06T00:03:24.796Z,12.93
2023-05-06T00:05:53.116Z,12.93
2023-05-06T00:08:22.805Z,12.91
2023-05-06T00:10:51.508Z,12.93
2023-05-06T00:13:19.967Z,12.91
2023-05-06T00:15:48.296Z,12.88
2023-05-06T00:18:16.546Z,12.86
2023-05-06T00:20:44.799Z,12.86
2023-05-06T00:23:13.307Z,12.85
2023-05-06T00:25:43.348Z,12.87
2023-05-06T00:32:36.319Z,12.83
2023-05-06T00:35:04.812Z,12.83
2023-05-06T00:37:33.152Z,12.83
2023-05-06T00:40:01.363Z,12.84
2023-05-06T00:51:19.833Z,12.79
2023-05-06T00:53:48.765Z,12.79
2023-05-06T00:56:20.586Z,12.80
2023-05-06T00:58:49.383Z,12.81
2023-05-06T01:01:18.067Z,12.82
2023-05-06T01:03:47.253Z,12.81
2023-05-06T01:06:20.727Z,12.78
2023-05-06T01:08:53.210Z,12.77
2023-05-06T01:20:05.445Z,12.77
2023-05-06T01:22:36.824Z,12.76
2023-05-06T01:25:07.252Z,12.75
2023-05-06T01:27:35.545Z,12.73
2023-05-06T01:30:07.556Z,12.71
2023-05-06T01:32:40.065Z,12.69
2023-05-06T01:35:14.422Z,12.69
2023-05-06T01:37:46.573Z,12.69
2023-05-06T01:40:16.437Z,12.68
2023-05-06T01:42:44.737Z,12.67
2023-05-06T01:45:13.330Z,12.68
2023-05-06T01:47:41.631Z,12.62
2023-05-06T01:59:27.998Z,12.56
2023-05-06T02:01:57.954Z,12.54
2023-05-06T02:04:26.204Z,12.52
2023-05-06T02:06:54.474Z,12.48
2023-05-06T02:13:41.424Z,12.40
2023-05-06T02:16:12.531Z,12.35
2023-05-06T02:18:41.586Z,12.31
2023-05-06T02:21:11.128Z,12.29
2023-05-06T02:36:17.959Z,12.29
2023-05-06T02:38:46.235Z,12.29
2023-05-06T02:41:14.486Z,12.26
2023-05-06T02:43:42.842Z,12.25
2023-05-06T02:50:35.911Z,12.18
2023-05-06T02:53:05.593Z,12.17
2023-05-06T02:55:34.354Z,12.18
2023-05-06T02:58:03.249Z,12.14
2023-05-06T03:00:57.000Z,12.11
2023-05-06T03:03:25.350Z,12.08
2023-05-06T03:05:53.879Z,12.03
2023-05-06T03:08:24.270Z,11.99
2023-05-06T03:10:52.861Z,12.00
2023-05-06T03:13:47.084Z,12.02
2023-05-06T03:16:16.271Z,12.00
2023-05-06T03:18:48.630Z,11.99
2023-05-06T03:21:17.888Z,11.98
2023-05-06T03:24:37.771Z,11.97
2023-05-06T03:27:09.639Z,11.94
2023-05-06T03:29:38.293Z,11.94
2023-05-06T03:32:08.429Z,11.92
2023-05-06T03:35:44.177Z,11.93
2023-05-06T03:38:12.618Z,11.90
2023-05-06T03:40:48.540Z,11.84
2023-05-06T03:43:18.855Z,11.83
2023-05-06T03:54:40.289Z,11.77
2023-05-06T03:57:09.373Z,11.76
2023-05-06T03:59:39.715Z,11.77
2023-05-06T04:02:08.278Z,11.73
2023-05-06T04:08:27.601Z,11.76
2023-05-06T04:10:57.811Z,11.77
2023-05-06T04:13:31.912Z,11.79
2023-05-06T04:20:22.898Z,11.80
2023-05-06T04:22:51.359Z,11.80
2023-05-06T04:25:21.380Z,11.83
2023-05-06T04:27:50.085Z,11.82
2023-05-06T04:34:37.699Z,11.86
2023-05-06T04:37:10.277Z,11.88
2023-05-06T04:39:58.922Z,11.91
2023-05-06T04:42:27.237Z,11.93
2023-05-06T04:45:12.066Z,11.92
2023-05-06T04:47:43.201Z,11.93
2023-05-06T04:50:12.405Z,11.93
2023-05-06T04:52:42.092Z,11.93
2023-05-06T04:55:11.337Z,11.93
2023-05-06T04:57:44.397Z,11.92
2023-05-06T05:00:14.709Z,11.88
2023-05-06T05:02:43.388Z,11.88
2023-05-06T05:05:37.849Z,11.84
2023-05-06T05:08:13.464Z,11.82
2023-05-06T05:10:43.584Z,11.81
2023-05-06T05:13:14.882Z,11.85
2023-05-06T05:15:45.343Z,11.87
2023-05-06T05:18:15.842Z,11.87
2023-05-06T05:20:45.898Z,11.86
2023-05-06T05:23:17.106Z,11.85
2023-05-06T05:26:12.265Z,11.86
2023-05-06T05:28:42.079Z,11.87
2023-05-06T05:31:10.741Z,11.94
2023-05-06T05:33:40.195Z,12.07
2023-05-06T05:36:15.433Z,12.24
2023-05-06T05:38:47.882Z,12.40
2023-05-06T05:41:17.593Z,12.58
2023-05-06T05:43:46.943Z,12.73
2023-05-06T05:49:25.514Z,13.09
2023-05-06T05:51:55.557Z,13.11
2023-05-06T05:54:25.436Z,13.04
2023-05-06T05:56:53.714Z,13.03
2023-05-06T05:59:22.950Z,13.06
2023-05-06T06:01:53.791Z,13.08
2023-05-06T06:04:22.432Z,13.17
2023-05-06T06:06:50.697Z,13.18
2023-05-06T06:09:19.957Z,13.17
2023-05-06T06:11:50.662Z,13.16
2023-05-06T06:14:19.326Z,13.22
2023-05-06T06:16:49.747Z,13.22
2023-05-06T06:23:44.398Z,13.43
2023-05-06T06:26:12.894Z,13.49
2023-05-06T06:28:44.723Z,13.50
2023-05-06T06:31:13.229Z,13.43
2023-05-06T06:33:41.979Z,13.38
2023-05-06T06:36:10.750Z,13.29
2023-05-06T06:38:39.056Z,13.28
2023-05-06T06:41:07.334Z,13.30
2023-05-06T06:44:49.262Z,13.44
2023-05-06T06:47:19.292Z,13.63
2023-05-06T06:49:47.595Z,13.66
2023-05-06T06:52:15.822Z,13.70
2023-05-06T06:54:44.089Z,13.69
2023-05-06T06:57:12.610Z,13.70
2023-05-06T06:59:41.162Z,13.67
2023-05-06T07:02:09.421Z,13.79
2023-05-06T07:04:39.133Z,13.82
2023-05-06T07:11:00.515Z,13.71
2023-05-06T07:13:29.016Z,13.77
2023-05-06T07:15:58.812Z,13.86
2023-05-06T07:19:16.836Z,13.89
2023-05-06T07:21:46.563Z,13.93
2023-05-06T07:24:14.754Z,13.90
2023-05-06T07:26:43.008Z,13.85
2023-05-06T07:29:11.705Z,13.89
2023-05-06T07:31:40.007Z,13.73
2023-05-06T07:34:08.845Z,13.66
2023-05-06T07:36:40.725Z,13.80
2023-05-06T07:39:10.900Z,13.89
2023-05-06T07:41:39.449Z,13.97
2023-05-06T07:44:07.692Z,13.96
2023-05-06T07:46:36.381Z,13.91
2023-05-06T07:49:04.781Z,13.77
2023-05-06T07:55:46.749Z,13.50
2023-05-06T07:58:15.894Z,13.54
2023-05-06T08:00:44.289Z,13.53
2023-05-06T08:07:32.239Z,13.39
2023-05-06T08:10:00.869Z,13.36
2023-05-06T08:12:30.659Z,13.35
2023-05-06T08:14:58.958Z,13.45
2023-05-06T08:17:27.235Z,13.59
2023-05-06T08:19:55.628Z,13.70
2023-05-06T08:22:24.084Z,13.75
2023-05-06T08:24:52.305Z,13.88
2023-05-06T08:27:20.565Z,14.11
2023-05-06T08:29:50.478Z,14.33
2023-05-06T08:32:18.698Z,14.48
2023-05-06T08:34:46.972Z,14.53
2023-05-06T08:37:15.483Z,14.59
2023-05-06T08:39:45.564Z,14.60
2023-05-06T08:42:13.943Z,14.63
2023-05-06T08:44:42.193Z,14.67
2023-05-06T08:47:11.845Z,14.80
2023-05-06T08:49:40.183Z,14.73
2023-05-06T08:52:08.592Z,14.67
2023-05-06T08:54:37.164Z,14.57
2023-05-06T08:57:06.365Z,14.58
2023-05-06T08:59:35.054Z,14.58
2023-05-06T09:02:04.013Z,14.57
2023-05-06T09:04:33.670Z,14.62
2023-05-06T09:07:51.719Z,14.75
2023-05-06T09:10:20.055Z,15.09
2023-05-06T09:12:48.311Z,15.32
2023-05-06T09:15:16.557Z,15.44
2023-05-06T09:17:45.453Z,15.38
2023-05-06T09:20:15.130Z,15.60
2023-05-06T09:22:43.500Z,15.79
2023-05-06T09:25:12.253Z,16.01
2023-05-06T09:27:40.887Z,16.30
2023-05-06T09:30:11.660Z,16.43
2023-05-06T09:32:40.603Z,16.38
2023-05-06T09:35:10.117Z,16.35
2023-05-06T09:37:40.237Z,16.14
2023-05-06T09:40:10.332Z,15.89
2023-05-06T09:42:39.056Z,15.99
2023-05-06T09:45:11.120Z,15.90
2023-05-06T09:47:39.650Z,15.66
2023-05-06T09:50:17.243Z,15.81
2023-05-06T09:52:47.489Z,16.08
2023-05-06T09:55:15.756Z,16.23
2023-05-06T09:57:44.279Z,17.04
2023-05-06T10:00:14.497Z,17.93
2023-05-06T10:02:43.051Z,18.42
2023-05-06T10:05:12.554Z,19.11
2023-05-06T10:07:41.489Z,19.25
2023-05-06T10:10:12.311Z,18.96
2023-05-06T10:12:40.845Z,18.55
2023-05-06T10:15:10.668Z,18.25
2023-05-06T10:17:39.433Z,18.82
2023-05-06T10:20:09.312Z,19.25
2023-05-06T10:22:42.708Z,18.67
2023-05-06T10:25:17.335Z,18.47
2023-05-06T10:27:46.463Z,18.07
2023-05-06T10:30:16.097Z,17.94
2023-05-06T10:32:44.989Z,18.96
2023-05-06T10:35:20.548Z,19.58
2023-05-06T10:37:49.092Z,19.73
2023-05-06T10:40:20.163Z,19.85
2023-05-06T10:42:48.364Z,19.32
2023-05-06T10:45:16.751Z,19.50
2023-05-06T10:48:12.860Z,19.94
2023-05-06T10:50:41.185Z,20.11
2023-05-06T10:53:09.690Z,20.32
2023-05-06T10:55:39.339Z,20.82
2023-05-06T10:58:15.078Z,21.20
2023-05-06T11:00:43.429Z,21.25
2023-05-06T11:07:42.306Z,22.20
2023-05-06T11:10:12.293Z,22.65
2023-05-06T11:12:49.389Z,22.86
2023-05-06T11:15:22.673Z,22.67
2023-05-06T11:17:51.034Z,22.20
2023-05-06T11:20:20.337Z,22.06
2023-05-06T11:22:48.638Z,22.29
2023-05-06T11:25:25.819Z,22.56
2023-05-06T11:27:57.055Z,22.41
2023-05-06T11:30:25.892Z,22.53
2023-05-06T11:32:54.623Z,22.34
2023-05-06T11:35:23.212Z,21.90
2023-05-06T11:37:51.590Z,21.96
2023-05-06T11:40:19.976Z,22.07
2023-05-06T11:42:48.288Z,22.08
2023-05-06T11:45:18.111Z,22.01
2023-05-06T11:47:46.849Z,22.19
2023-05-06T11:50:15.245Z,22.42
2023-05-06T11:52:43.478Z,22.42
2023-05-06T11:55:11.715Z,22.50
2023-05-06T11:57:46.312Z,22.81
2023-05-06T12:00:18.814Z,22.66
2023-05-06T12:02:47.126Z,22.10
2023-05-06T12:05:15.959Z,21.85
2023-05-06T12:08:19.839Z,21.77
2023-05-06T12:10:54.960Z,21.67
2023-05-06T12:13:23.384Z,21.16
2023-05-06T12:15:53.356Z,21.24
2023-05-06T12:18:22.057Z,21.42
2023-05-06T12:20:50.305Z,20.97
2023-05-06T12:23:20.108Z,20.76
2023-05-06T12:25:49.146Z,20.65
2023-05-06T12:28:43.829Z,20.25
2023-05-06T12:31:23.192Z,20.24
2023-05-06T12:33:51.753Z,19.99
2023-05-06T12:36:20.072Z,20.04
2023-05-06T12:38:52.738Z,20.10
2023-05-06T12:41:21.695Z,19.85
2023-05-06T12:43:50.381Z,20.05
2023-05-06T12:46:18.990Z,20.08
2023-05-06T12:52:44.472Z,20.11
2023-05-06T12:55:12.983Z,19.97
2023-05-06T12:57:41.404Z,20.07
2023-05-06T13:00:27.925Z,20.18
2023-05-06T13:02:56.280Z,20.32
2023-05-06T13:05:24.586Z,20.19
2023-05-06T13:07:54.190Z,19.94
2023-05-06T13:10:22.498Z,19.46
2023-05-06T13:12:51.060Z,19.24
2023-05-06T13:15:20.679Z,19.08
2023-05-06T13:17:49.580Z,19.11
2023-05-06T13:20:19.090Z,19.11
2023-05-06T13:22:54.387Z,19.02
2023-05-06T13:25:24.951Z,18.85
2023-05-06T13:27:53.916Z,18.69
2023-05-06T13:30:22.215Z,18.77
2023-05-06T13:32:50.543Z,19.04
2023-05-06T13:35:18.963Z,18.87
2023-05-06T13:37:47.223Z,18.59
2023-05-06T13:40:15.916Z,18.57
2023-05-06T13:42:45.565Z,18.36
2023-05-06T13:45:13.857Z,18.36
2023-05-06T13:47:43.354Z,18.32
2023-05-06T13:50:12.668Z,18.40
2023-05-06T13:52:41.069Z,18.62
2023-05-06T13:55:10.307Z,18.52
2023-05-06T13:57:38.815Z,18.27
2023-05-06T14:00:11.198Z,18.01
2023-05-06T14:02:39.537Z,17.81
2023-05-06T14:05:08.996Z,17.78
2023-05-06T14:07:40.402Z,17.86
2023-05-06T14:10:10.591Z,18.22
2023-05-06T14:13:21.409Z,18.39
2023-05-06T14:15:51.148Z,18.76
2023-05-06T14:18:19.502Z,19.02
2023-05-06T14:20:47.720Z,19.04
2023-05-06T14:23:15.967Z,19.14
2023-05-06T14:25:44.234Z,19.02
2023-05-06T14:28:12.980Z,19.27
2023-05-06T14:30:41.233Z,19.49
2023-05-06T14:33:11.582Z,19.38
2023-05-06T14:35:41.844Z,19.27
2023-05-06T14:38:10.690Z,19.04
2023-05-06T14:40:38.989Z,18.86
2023-05-06T14:43:08.046Z,18.58
2023-05-06T14:46:28.593Z,18.27
2023-05-06T14:48:59.106Z,18.27
2023-05-06T14:51:29.183Z,18.18
2023-05-06T14:53:58.168Z,18.13
2023-05-06T14:57:01.345Z,18.05
2023-05-06T14:59:29.579Z,17.96
2023-05-06T15:01:58.915Z,17.67
2023-05-06T15:04:28.598Z,17.49
2023-05-06T15:06:57.981Z,17.62
2023-05-06T15:09:26.425Z,17.81
2023-05-06T15:11:54.782Z,17.87
2023-05-06T15:14:23.029Z,17.95
2023-05-06T15:16:51.809Z,17.86
2023-05-06T15:19:20.079Z,17.95
2023-05-06T15:21:49.748Z,17.98
2023-05-06T15:24:17.973Z,18.08
2023-05-06T15:26:46.346Z,18.25
2023-05-06T15:29:14.885Z,18.16
2023-05-06T15:31:45.120Z,18.24
2023-05-06T15:34:13.454Z,18.34
2023-05-06T15:36:42.549Z,18.38
2023-05-06T15:39:18.292Z,18.50
2023-05-06T15:41:47.255Z,18.48
2023-05-06T15:44:16.253Z,18.61
2023-05-06T15:46:44.953Z,18.54
2023-05-06T15:49:54.802Z,18.75
2023-05-06T15:52:23.714Z,19.04
2023-05-06T15:54:58.945Z,19.14
2023-05-06T15:57:30.178Z,19.27
2023-05-06T16:00:12.405Z,19.33
2023-05-06T16:02:41.199Z,19.34
2023-05-06T16:05:10.604Z,19.44
2023-05-06T16:07:38.946Z,19.23
2023-05-06T16:13:46.393Z,18.96
2023-05-06T16:16:14.798Z,19.08
2023-05-06T16:18:43.058Z,18.81
2023-05-06T16:21:35.681Z,18.73
2023-05-06T16:24:04.673Z,18.48
2023-05-06T16:26:34.555Z,18.12
2023-05-06T16:29:02.799Z,17.85
2023-05-06T16:31:31.524Z,17.99
2023-05-06T16:33:59.791Z,17.93
2023-05-06T16:36:28.660Z,17.91
2023-05-06T16:38:56.947Z,17.85
2023-05-06T16:41:25.174Z,17.74
2023-05-06T16:43:55.218Z,17.60
2023-05-06T16:46:24.711Z,17.41
2023-05-06T16:48:54.207Z,17.37
2023-05-06T16:51:22.787Z,17.29
2023-05-06T16:53:51.114Z,17.25
2023-05-06T16:56:19.293Z,17.09
2023-05-06T16:58:47.562Z,17.02
2023-05-06T17:01:17.364Z,16.89
2023-05-06T17:03:46.341Z,16.76
2023-05-06T17:06:14.817Z,16.58
2023-05-06T17:08:43.276Z,16.53
2023-05-06T17:11:11.590Z,16.44
2023-05-06T17:13:39.830Z,16.39
2023-05-06T17:16:08.653Z,16.31
2023-05-06T17:18:38.844Z,16.09
2023-05-06T17:21:08.290Z,15.99
2023-05-06T17:23:58.250Z,15.81
2023-05-06T17:26:27.012Z,15.70
2023-05-06T17:28:55.506Z,15.63
2023-05-06T17:31:23.929Z,15.47
2023-05-06T17:33:53.695Z,15.46
2023-05-06T17:36:22.389Z,15.39
2023-05-06T17:38:53.110Z,15.28
2023-05-06T17:41:21.364Z,15.07
2023-05-06T17:43:49.669Z,14.96
2023-05-06T17:46:19.615Z,14.92
2023-05-06T17:48:48.044Z,14.80
2023-05-06T17:51:18.296Z,14.72
2023-05-06T17:53:46.547Z,14.66
2023-05-06T17:56:14.760Z,14.61
2023-05-06T17:58:43.012Z,14.55
2023-05-06T18:01:11.693Z,14.51
2023-05-06T18:03:40.442Z,14.44
2023-05-06T18:06:09.316Z,14.36
2023-05-06T18:08:38.928Z,14.34
2023-05-06T18:11:07.244Z,14.23
2023-05-06T18:13:36.557Z,14.18
2023-05-06T18:16:05.023Z,14.12
2023-05-06T18:18:33.534Z,14.07
2023-05-06T18:21:01.759Z,14.03
2023-05-06T18:23:30.197Z,13.95
2023-05-06T18:25:59.799Z,13.86
2023-05-06T18:28:28.047Z,13.77
2023-05-06T18:30:56.750Z,13.73
2023-05-06T18:33:25.110Z,13.67
2023-05-06T18:35:53.400Z,13.58
2023-05-06T18:38:21.643Z,13.52
2023-05-06T18:40:49.913Z,13.45
2023-05-06T18:43:19.564Z,13.29
2023-05-06T18:46:05.421Z,13.23
2023-05-06T18:48:33.835Z,13.12
2023-05-06T18:51:12.676Z,13.07
2023-05-06T18:53:41.041Z,12.99
2023-05-06T18:57:10.412Z,12.94
2023-05-06T18:59:40.148Z,12.86
2023-05-06T19:02:08.867Z,12.81
2023-05-06T19:04:37.279Z,12.74
2023-05-06T19:07:55.813Z,12.67
2023-05-06T19:10:24.256Z,12.57
2023-05-06T19:12:53.179Z,12.50
2023-05-06T19:15:23.297Z,12.42
2023-05-06T19:17:51.646Z,12.37
2023-05-06T19:20:19.904Z,12.31
2023-05-06T19:22:48.166Z,12.26
2023-05-06T19:25:16.418Z,12.21
2023-05-06T19:28:00.393Z,12.17
2023-05-06T19:30:30.615Z,12.13
2023-05-06T19:32:59.409Z,12.09
2023-05-06T19:35:27.658Z,12.01
2023-05-06T19:39:31.145Z,11.92
2023-05-06T19:41:11.036Z,11.82
2023-05-06T19:43:42.135Z,11.78
2023-05-06T19:46:11.873Z,11.75
2023-05-06T19:48:40.162Z,11.72
2023-05-06T19:51:08.372Z,11.64
2023-05-06T19:53:37.220Z,11.57
2023-05-06T19:56:11.900Z,11.51
2023-05-06T19:58:40.196Z,11.45
2023-05-06T20:01:09.970Z,11.38
2023-05-06T20:03:40.981Z,11.33
2023-05-06T20:06:10.495Z,11.28
2023-05-06T20:08:38.968Z,11.24
2023-05-06T20:11:07.360Z,11.21
2023-05-06T20:13:35.822Z,11.15
2023-05-06T20:16:04.388Z,11.08
2023-05-06T20:18:33.654Z,11.03
2023-05-06T20:21:03.688Z,10.97
2023-05-06T20:23:32.405Z,10.93
2023-05-06T20:26:00.648Z,10.96
2023-05-06T20:28:28.872Z,11.01
2023-05-06T20:30:59.782Z,10.99
2023-05-06T20:33:28.185Z,10.97
2023-05-06T20:35:57.929Z,10.92
2023-05-06T20:38:30.169Z,10.93
2023-05-06T20:40:59.119Z,10.90
2023-05-06T20:43:27.324Z,10.85
2023-05-06T20:45:55.634Z,10.84
2023-05-06T20:48:23.934Z,10.81
2023-05-06T20:50:54.254Z,10.79
2023-05-06T20:53:22.747Z,10.74
2023-05-06T20:55:53.071Z,10.70
2023-05-06T20:58:21.398Z,10.68
2023-05-06T21:00:50.548Z,10.64
2023-05-06T21:03:18.905Z,10.66
2023-05-06T21:05:47.333Z,10.68
2023-05-06T21:08:16.464Z,10.72
2023-05-06T21:11:53.562Z,10.76
2023-05-06T21:14:24.762Z,10.78
2023-05-06T21:16:53.388Z,10.83
2023-05-06T21:19:21.687Z,10.82
2023-05-06T21:21:49.969Z,10.82
2023-05-06T21:24:18.167Z,10.84
2023-05-06T21:26:46.718Z,10.87
2023-05-06T21:29:14.961Z,10.90
2023-05-06T21:31:44.886Z,10.91
2023-05-06T21:34:13.134Z,10.92
2023-05-06T21:36:42.342Z,10.92
2023-05-06T21:39:12.042Z,10.88
2023-05-06T21:41:40.642Z,10.79
2023-05-06T21:44:10.121Z,10.76
2023-05-06T21:46:38.722Z,10.79
2023-05-06T21:49:08.372Z,10.84
2023-05-06T21:51:36.948Z,10.84
2023-05-06T21:54:05.337Z,10.84
2023-05-06T21:56:33.633Z,10.85
2023-05-06T21:59:02.201Z,10.82
2023-05-06T22:01:30.525Z,10.76
2023-05-06T22:03:58.842Z,10.77
2023-05-06T22:06:29.135Z,10.73
2023-05-06T22:08:57.382Z,10.76
2023-05-06T22:11:25.989Z,10.75
2023-05-06T22:18:13.948Z,10.67
2023-05-06T22:20:42.178Z,10.64
2023-05-06T22:23:12.649Z,10.61
2023-05-06T22:25:41.225Z,10.60
2023-05-06T22:28:09.461Z,10.58
2023-05-06T22:30:37.716Z,10.57
2023-05-06T22:33:06.156Z,10.53
2023-05-06T22:35:34.451Z,10.54
2023-05-06T22:38:03.059Z,10.41
2023-05-06T22:40:32.664Z,10.37
2023-05-06T22:43:00.903Z,10.33
2023-05-06T22:45:29.146Z,10.35
2023-05-06T22:48:23.856Z,10.34
2023-05-06T22:50:52.842Z,10.33
2023-05-06T22:53:21.306Z,10.33
2023-05-06T22:55:50.986Z,10.30
2023-05-06T22:58:43.961Z,10.32
2023-05-06T23:01:12.294Z,10.27
2023-05-06T23:03:40.610Z,10.30
2023-05-06T23:06:09.273Z,10.26
2023-05-06T23:08:37.504Z,10.26
2023-05-06T23:11:07.142Z,10.17
2023-05-06T23:13:36.598Z,10.17
2023-05-06T23:16:05.267Z,10.16
2023-05-06T23:18:33.960Z,10.09
2023-05-06T23:21:02.939Z,10.06
2023-05-06T23:23:31.295Z,10.02
2023-05-06T23:25:59.528Z,10.07
2023-05-06T23:28:29.219Z,10.02
2023-05-06T23:31:37.877Z,10.01
2023-05-06T23:34:06.544Z,10.04
2023-05-06T23:36:35.324Z,10.00
2023-05-06T23:39:04.234Z,10.01
2023-05-06T23:41:32.467Z,10.04
2023-05-06T23:44:02.141Z,10.06
2023-05-06T23:46:30.827Z,10.07
2023-05-06T23:48:59.122Z,10.07
2023-05-06T23:51:27.766Z,10.04
2023-05-06T23:57:56.533Z,10.04
